createdAt,value
2018-09-09T07:35:21.033Z,4.80
2018-09-09T07:37:49.191Z,4.40
2018-09-09T07:40:17.309Z,4.13
2018-09-09T07:42:45.479Z,3.73
2018-09-09T07:45:13.639Z,7.30
2018-09-09T07:47:41.855Z,4.03
2018-09-09T07:50:10.076Z,4.40
2018-09-09T07:52:38.664Z,3.73
2018-09-09T07:55:06.791Z,3.77
2018-09-09T07:57:34.924Z,4.07
2018-09-09T08:00:03.095Z,3.97
2018-09-09T08:02:31.412Z,4.20
2018-09-09T08:04:59.552Z,4.30
2018-09-09T08:07:27.725Z,3.67
2018-09-09T08:09:55.869Z,3.77
2018-09-09T08:12:23.981Z,3.60
2018-09-09T08:14:52.126Z,4.90
2018-09-09T08:17:20.248Z,3.80
2018-09-09T08:19:48.392Z,4.00
2018-09-09T08:22:16.525Z,3.70
2018-09-09T08:24:44.626Z,3.63
2018-09-09T08:27:12.775Z,4.10
2018-09-09T08:29:41.042Z,7.05
2018-09-09T08:32:09.168Z,12.90
2018-09-09T08:34:37.294Z,6.25
2018-09-09T08:37:05.404Z,4.12
2018-09-09T08:39:33.546Z,3.75
2018-09-09T08:42:01.710Z,3.80
2018-09-09T08:44:29.887Z,3.67
2018-09-09T08:46:58.021Z,3.92
2018-09-09T08:49:26.127Z,3.70
2018-09-09T08:51:54.303Z,3.40
2018-09-09T08:54:22.432Z,3.58
2018-09-09T08:56:50.552Z,3.60
2018-09-09T08:59:18.675Z,3.98
2018-09-09T09:01:46.883Z,3.65
2018-09-09T09:04:14.993Z,4.00
2018-09-09T09:06:43.156Z,4.20
2018-09-09T09:09:11.702Z,4.10
2018-09-09T09:11:39.857Z,4.22
2018-09-09T09:14:08.015Z,4.00
2018-09-09T09:16:36.209Z,3.98
2018-09-09T09:19:04.421Z,4.10
2018-09-09T09:21:32.590Z,3.98
2018-09-09T09:24:00.696Z,4.10
2018-09-09T09:26:28.807Z,4.50
2018-09-09T09:28:56.963Z,4.00
2018-09-09T09:31:25.101Z,3.95
2018-09-09T09:33:53.212Z,4.65
2018-09-09T09:36:21.344Z,4.05
2018-09-09T09:38:49.491Z,4.37
2018-09-09T09:41:17.637Z,5.08
2018-09-09T09:43:45.808Z,4.00
2018-09-09T09:46:13.931Z,4.00
2018-09-09T09:48:42.056Z,4.25
2018-09-09T09:51:10.217Z,4.15
2018-09-09T09:53:38.401Z,4.28
2018-09-09T09:56:06.471Z,7.25
2018-09-09T09:58:34.838Z,4.25
2018-09-09T10:01:02.967Z,6.60
2018-09-09T10:03:31.139Z,5.30
2018-09-09T10:05:59.243Z,5.08
2018-09-09T10:08:27.352Z,4.22
2018-09-09T10:10:55.500Z,3.72
2018-09-09T10:13:23.652Z,3.40
2018-09-09T10:15:51.756Z,3.55
2018-09-09T10:18:19.876Z,3.72
2018-09-09T10:20:48.024Z,3.70
2018-09-09T10:23:16.201Z,3.35
2018-09-09T10:25:44.335Z,3.62
2018-09-09T10:28:12.476Z,3.42
2018-09-09T10:30:40.590Z,3.02
2018-09-09T10:33:08.737Z,3.27
2018-09-09T10:35:36.868Z,3.75
2018-09-09T10:38:04.977Z,2.85
2018-09-09T10:40:33.112Z,3.00
2018-09-09T10:43:01.299Z,2.83
2018-09-09T10:45:29.425Z,3.08
2018-09-09T10:47:57.577Z,2.70
2018-09-09T10:50:25.773Z,2.60
2018-09-09T10:52:53.993Z,2.65
2018-09-09T10:55:22.150Z,2.33
2018-09-09T10:57:50.320Z,2.65
2018-09-09T11:00:18.439Z,2.33
2018-09-09T11:02:46.600Z,2.40
2018-09-09T11:05:14.748Z,2.70
2018-09-09T11:07:42.976Z,2.62
2018-09-09T11:10:11.133Z,2.60
2018-09-09T11:12:39.394Z,2.40
2018-09-09T11:15:07.437Z,2.08
2018-09-09T11:17:35.543Z,2.50
2018-09-09T11:20:03.679Z,2.30
2018-09-09T11:22:31.854Z,2.50
2018-09-09T11:25:00.046Z,2.12
2018-09-09T11:27:28.181Z,2.33
2018-09-09T11:29:56.323Z,2.25
2018-09-09T11:32:24.483Z,2.00
2018-09-09T11:34:52.612Z,2.20
2018-09-09T11:37:20.812Z,2.20
2018-09-09T11:39:48.928Z,2.20
2018-09-09T11:42:17.192Z,2.05
2018-09-09T11:44:45.302Z,1.92
2018-09-09T11:47:13.454Z,1.90
2018-09-09T11:49:41.615Z,1.90
2018-09-09T11:52:09.747Z,1.77
2018-09-09T11:54:37.964Z,2.00
2018-09-09T11:57:06.163Z,1.80
2018-09-09T11:59:34.374Z,1.98
2018-09-09T12:02:02.590Z,1.95
2018-09-09T12:04:30.706Z,2.87
2018-09-09T12:06:58.821Z,2.00
2018-09-09T12:09:26.944Z,1.80
2018-09-09T12:11:55.068Z,2.15
2018-09-09T12:14:23.200Z,2.22
2018-09-09T12:16:51.344Z,1.90
2018-09-09T12:19:19.465Z,1.75
2018-09-09T12:21:47.584Z,1.90
2018-09-09T12:24:15.708Z,1.77
2018-09-09T12:26:43.848Z,2.10
2018-09-09T12:29:11.981Z,2.12
2018-09-09T12:31:40.131Z,1.85
2018-09-09T12:34:08.251Z,1.90
2018-09-09T12:36:36.388Z,1.82
2018-09-09T12:39:06.140Z,2.10
2018-09-09T12:41:34.392Z,1.75
2018-09-09T12:44:07.977Z,1.92
2018-09-09T12:46:41.483Z,1.70
2018-09-09T12:49:09.694Z,1.80
2018-09-09T12:51:37.883Z,2.12
2018-09-09T12:54:06.022Z,1.85
2018-09-09T12:56:34.231Z,1.70
2018-09-09T12:59:02.520Z,1.65
2018-09-09T13:01:30.678Z,1.80
2018-09-09T13:03:58.972Z,2.05
2018-09-09T13:06:27.163Z,1.80
2018-09-09T13:08:55.286Z,1.90
2018-09-09T13:11:23.414Z,1.77
2018-09-09T13:13:51.520Z,1.90
2018-09-09T13:16:19.647Z,1.67
2018-09-09T13:18:47.796Z,1.77
2018-09-09T13:21:15.904Z,1.90
2018-09-09T13:23:44.066Z,1.72
2018-09-09T13:26:12.188Z,1.72
2018-09-09T13:28:40.348Z,1.80
2018-09-09T13:31:08.480Z,2.00
2018-09-09T13:33:36.590Z,1.82
2018-09-09T13:36:04.794Z,1.70
2018-09-09T13:38:39.314Z,1.87
2018-09-09T13:41:07.456Z,1.62
2018-09-09T13:43:35.563Z,1.70
2018-09-09T13:46:03.724Z,1.65
2018-09-09T13:48:31.910Z,1.70
2018-09-09T13:51:00.300Z,1.62
2018-09-09T13:53:28.467Z,1.65
2018-09-09T13:55:56.596Z,1.60
2018-09-09T13:58:24.726Z,1.62
2018-09-09T14:00:52.900Z,1.92
2018-09-09T14:03:21.020Z,1.50
2018-09-09T14:05:49.252Z,1.70
2018-09-09T14:08:17.355Z,1.70
2018-09-09T14:10:45.465Z,1.60
2018-09-09T14:13:13.585Z,1.42
2018-09-09T14:15:41.707Z,1.90
2018-09-09T14:18:09.843Z,1.50
2018-09-09T14:20:37.939Z,1.50
2018-09-09T14:23:06.076Z,1.60
2018-09-09T14:25:34.197Z,1.50
2018-09-09T14:28:02.406Z,1.60
2018-09-09T14:30:30.596Z,1.70
2018-09-09T14:32:58.704Z,1.80
2018-09-09T14:35:26.901Z,1.80
2018-09-09T14:37:55.053Z,1.55
2018-09-09T14:40:23.187Z,1.77
2018-09-09T14:42:51.333Z,1.42
2018-09-09T14:45:19.452Z,1.62
2018-09-09T14:47:47.559Z,1.35
2018-09-09T14:50:15.665Z,1.47
2018-09-09T14:52:43.871Z,1.52
2018-09-09T14:55:12.007Z,1.60
2018-09-09T14:57:40.115Z,1.40
2018-09-09T15:00:08.295Z,1.55
2018-09-09T15:02:36.702Z,1.40
2018-09-09T15:05:04.890Z,1.45
2018-09-09T15:07:33.250Z,1.60
2018-09-09T15:10:01.456Z,1.55
2018-09-09T15:12:29.671Z,1.70
2018-09-09T15:14:58.126Z,1.52
2018-09-09T15:17:26.308Z,1.50
2018-09-09T15:19:54.792Z,1.40
2018-09-09T15:22:22.965Z,1.32
2018-09-09T15:24:51.040Z,1.50
2018-09-09T15:27:19.243Z,1.52
2018-09-09T15:29:47.364Z,1.72
2018-09-09T15:32:15.846Z,1.50
2018-09-09T15:34:44.461Z,1.30
2018-09-09T15:37:12.986Z,1.40
2018-09-09T15:39:44.738Z,1.70
2018-09-09T15:42:13.156Z,1.50
2018-09-09T15:44:41.325Z,1.52
2018-09-09T15:47:09.470Z,1.57
2018-09-09T15:49:38.632Z,1.42
2018-09-09T15:52:07.684Z,1.52
2018-09-09T15:54:35.769Z,1.75
2018-09-09T15:57:03.927Z,1.60
2018-09-09T15:59:32.748Z,1.55
2018-09-09T16:02:00.970Z,1.50
2018-09-09T16:04:29.176Z,1.42
2018-09-09T16:06:57.414Z,1.50
2018-09-09T16:09:25.658Z,1.67
2018-09-09T16:11:53.818Z,1.72
2018-09-09T16:14:21.905Z,1.98
2018-09-09T16:16:50.151Z,1.85
2018-09-09T16:19:18.303Z,1.70
2018-09-09T16:21:46.500Z,1.60
2018-09-09T16:24:14.688Z,1.98
2018-09-09T16:26:42.859Z,2.08
2018-09-09T16:29:11.057Z,1.27
2018-09-09T16:31:39.169Z,1.80
2018-09-09T16:34:07.325Z,1.67
2018-09-09T16:36:35.569Z,1.65
2018-09-09T16:39:04.895Z,1.57
2018-09-09T16:41:33.207Z,1.62
2018-09-09T16:44:01.546Z,1.80
2018-09-09T16:46:31.733Z,2.02
2018-09-09T16:48:59.927Z,1.90
2018-09-09T16:51:28.088Z,2.00
2018-09-09T16:53:56.369Z,8.70
2018-09-09T16:56:24.560Z,10.13
2018-09-09T16:58:52.731Z,4.20
2018-09-09T17:01:21.098Z,4.50
2018-09-09T17:03:49.190Z,4.25
2018-09-09T17:06:17.688Z,3.40
2018-09-09T17:08:46.101Z,3.25
2018-09-09T17:11:14.271Z,2.80
2018-09-09T17:13:42.404Z,3.02
2018-09-09T17:16:17.699Z,2.75
2018-09-09T17:18:45.871Z,2.90
2018-09-09T17:21:14.267Z,2.62
2018-09-09T17:23:42.879Z,3.20
2018-09-09T17:26:11.279Z,2.92
2018-09-09T17:28:39.482Z,3.17
2018-09-09T17:31:07.804Z,3.10
2018-09-09T17:33:35.931Z,3.30
2018-09-09T17:36:04.073Z,2.90
2018-09-09T17:38:32.427Z,2.95
2018-09-09T17:41:00.666Z,2.90
2018-09-09T17:43:28.809Z,3.17
2018-09-09T17:45:56.921Z,3.65
2018-09-09T17:48:25.078Z,2.80
2018-09-09T17:50:53.315Z,3.15
2018-09-09T17:53:21.436Z,2.80
2018-09-09T17:55:49.567Z,3.00
2018-09-09T17:58:17.695Z,2.70
2018-09-09T18:00:45.834Z,2.83
2018-09-09T18:03:13.952Z,2.80
2018-09-09T18:05:42.082Z,2.87
2018-09-09T18:08:10.208Z,3.00
2018-09-09T18:10:38.365Z,2.80
2018-09-09T18:13:06.490Z,4.62
2018-09-09T18:15:34.682Z,3.42
2018-09-09T18:18:02.811Z,3.55
2018-09-09T18:20:30.997Z,2.95
2018-09-09T18:22:59.092Z,3.67
2018-09-09T18:25:27.227Z,3.30
2018-09-09T18:27:55.362Z,3.62
2018-09-09T18:30:23.492Z,3.87
2018-09-09T18:32:51.669Z,4.00
2018-09-09T18:35:19.826Z,3.50
2018-09-09T18:37:47.960Z,4.05
2018-09-09T18:40:16.091Z,4.60
2018-09-09T18:42:44.245Z,4.70
2018-09-09T18:45:12.408Z,5.58
2018-09-09T18:47:40.558Z,5.97
2018-09-09T18:50:08.687Z,5.08
2018-09-09T18:52:36.812Z,5.43
2018-09-09T18:55:05.044Z,6.10
2018-09-09T18:57:33.152Z,5.87
2018-09-09T19:00:01.377Z,5.30
2018-09-09T19:02:29.622Z,4.70
2018-09-09T19:04:57.761Z,5.07
2018-09-09T19:07:25.901Z,5.00
2018-09-09T19:09:54.033Z,5.40
2018-09-09T19:12:26.355Z,5.03
2018-09-09T19:14:54.539Z,5.17
2018-09-09T19:17:22.690Z,4.63
2018-09-09T19:19:50.849Z,7.70
2018-09-09T19:22:19.028Z,6.20
2018-09-09T19:24:47.164Z,5.30
2018-09-09T19:27:15.304Z,5.13
2018-09-09T19:29:43.528Z,4.50
2018-09-09T19:32:11.656Z,4.83
2018-09-09T19:34:39.912Z,4.40
2018-09-09T19:37:08.048Z,4.67
2018-09-09T19:39:36.629Z,5.03
2018-09-09T19:43:09.907Z,5.90
2018-09-09T19:45:38.161Z,6.00
2018-09-09T19:48:08.525Z,8.63
2018-09-09T19:50:37.709Z,8.53
2018-09-09T19:53:05.855Z,8.00
2018-09-09T19:55:35.867Z,7.73
2018-09-09T19:58:04.052Z,6.80
2018-09-09T20:00:32.628Z,6.43
2018-09-09T20:03:00.792Z,7.33
2018-09-09T20:08:12.046Z,7.70
2018-09-09T20:10:42.071Z,7.03
2018-09-09T20:13:12.682Z,6.70
2018-09-09T20:15:42.205Z,7.50
2018-09-09T20:18:12.231Z,7.23
2018-09-09T20:20:40.394Z,7.50
2018-09-09T20:23:15.586Z,7.83
2018-09-09T20:25:43.771Z,7.03
2018-09-09T20:28:12.527Z,7.27
2018-09-09T20:30:41.293Z,5.97
2018-09-09T20:33:09.430Z,6.23
2018-09-09T20:35:37.553Z,5.60
2018-09-09T20:38:05.717Z,5.20
2018-09-09T20:40:33.853Z,5.90
2018-09-09T20:43:01.996Z,6.20
2018-09-09T20:45:30.133Z,6.17
2018-09-09T20:47:58.251Z,6.17
2018-09-09T20:50:26.383Z,6.20
2018-09-09T20:52:54.524Z,5.83
2018-09-09T20:55:22.665Z,6.07
2018-09-09T20:57:50.809Z,6.40
